createdAt,value
2022-11-27T00:03:25.893Z,101494
2022-11-27T00:08:25.569Z,101492
2022-11-27T00:13:25.704Z,101496
2022-11-27T00:18:25.834Z,101496
2022-11-27T00:23:25.665Z,101491
2022-11-27T00:28:25.809Z,101485
2022-11-27T00:33:25.592Z,101491
2022-11-27T00:43:25.591Z,101490
2022-11-27T00:48:25.568Z,101500
2022-11-27T00:53:25.596Z,101508
2022-11-27T00:58:25.582Z,101508
2022-11-27T01:03:25.577Z,101503
2022-11-27T01:08:25.590Z,101501
2022-11-27T01:13:25.798Z,101500
2022-11-27T01:18:25.565Z,101498
2022-11-27T01:23:26.130Z,101498
2022-11-27T01:28:25.804Z,101500
2022-11-27T01:33:25.637Z,101502
2022-11-27T01:38:25.604Z,101504
2022-11-27T01:43:25.608Z,101504
2022-11-27T01:48:25.553Z,101504
2022-11-27T01:53:25.614Z,101504
2022-11-27T01:58:25.852Z,101507
2022-11-27T02:03:25.771Z,101516
2022-11-27T02:08:25.589Z,101518
2022-11-27T02:13:25.638Z,101527
2022-11-27T02:18:25.613Z,101519
2022-11-27T02:23:25.940Z,101517
2022-11-27T02:28:25.588Z,101517
2022-11-27T02:33:25.661Z,101518
2022-11-27T02:38:25.651Z,101521
2022-11-27T02:43:25.858Z,101523
2022-11-27T02:48:25.686Z,101523
2022-11-27T02:53:25.810Z,101526
2022-11-27T02:58:25.625Z,101529
2022-11-27T03:03:25.819Z,101531
2022-11-27T03:08:25.934Z,101526
2022-11-27T03:13:25.768Z,101528
2022-11-27T03:18:25.629Z,101529
2022-11-27T03:23:25.629Z,101529
2022-11-27T03:28:25.627Z,101534
2022-11-27T03:33:25.631Z,101538
2022-11-27T03:38:25.661Z,101531
2022-11-27T03:43:25.649Z,101542
2022-11-27T03:48:25.647Z,101543
2022-11-27T03:58:26.058Z,101546
2022-11-27T04:03:25.938Z,101538
2022-11-27T04:08:25.730Z,101539
2022-11-27T04:13:25.643Z,101542
2022-11-27T04:18:25.742Z,101543
2022-11-27T04:23:25.985Z,101543
2022-11-27T04:28:25.693Z,101542
2022-11-27T04:33:25.656Z,101535
2022-11-27T04:38:25.642Z,101535
2022-11-27T04:43:25.797Z,101530
2022-11-27T04:48:25.680Z,101531
2022-11-27T04:53:25.787Z,101535
2022-11-27T05:03:25.753Z,101517
2022-11-27T05:08:25.663Z,101517
2022-11-27T05:13:25.701Z,101519
2022-11-27T05:18:25.698Z,101519
2022-11-27T05:23:25.659Z,101525
2022-11-27T05:28:27.085Z,101527
2022-11-27T05:33:25.679Z,101527
2022-11-27T05:38:25.821Z,101530
2022-11-27T05:43:25.691Z,101521
2022-11-27T05:48:25.774Z,101521
2022-11-27T05:53:25.663Z,101522
2022-11-27T05:58:25.711Z,101526
2022-11-27T06:08:25.990Z,101525
2022-11-27T06:18:25.959Z,101532
2022-11-27T06:23:25.824Z,101532
2022-11-27T06:28:25.726Z,101551
2022-11-27T06:33:25.774Z,101551
2022-11-27T06:38:25.687Z,101553
2022-11-27T06:43:25.718Z,101548
2022-11-27T06:48:25.717Z,101556
2022-11-27T06:53:25.715Z,101561
2022-11-27T06:58:30.823Z,101559
2022-11-27T07:03:25.722Z,101567
2022-11-27T07:08:25.710Z,101569
2022-11-27T07:13:25.991Z,101561
2022-11-27T07:18:25.784Z,101554
2022-11-27T07:23:25.826Z,101558
2022-11-27T07:28:25.786Z,101561
2022-11-27T07:33:25.705Z,101565
2022-11-27T07:38:25.727Z,101569
2022-11-27T07:43:25.817Z,101570
2022-11-27T07:48:25.783Z,101567
2022-11-27T07:53:26.196Z,101572
2022-11-27T07:58:25.771Z,101576
2022-11-27T08:03:25.709Z,101576
2022-11-27T08:08:25.788Z,101568
2022-11-27T08:13:26.047Z,101565
2022-11-27T08:18:25.763Z,101560
2022-11-27T08:23:25.757Z,101566
2022-11-27T08:28:25.932Z,101568
2022-11-27T08:33:25.759Z,101568
2022-11-27T08:38:25.887Z,101584
2022-11-27T08:43:25.781Z,101588
2022-11-27T08:48:25.723Z,101591
2022-11-27T08:53:25.764Z,101588
2022-11-27T08:58:25.757Z,101591
2022-11-27T09:03:25.750Z,101591
2022-11-27T09:08:25.790Z,101597
2022-11-27T09:13:25.765Z,101595
2022-11-27T09:18:26.091Z,101601
2022-11-27T09:23:25.785Z,101603
2022-11-27T09:28:31.136Z,101604
2022-11-27T09:33:25.762Z,101604
2022-11-27T09:38:25.784Z,101598
2022-11-27T09:43:25.844Z,101598
2022-11-27T09:48:25.981Z,101591
2022-11-27T09:53:25.835Z,101585
2022-11-27T09:58:25.793Z,101585
2022-11-27T10:03:25.853Z,101580
2022-11-27T10:08:25.946Z,101581
2022-11-27T10:13:26.076Z,101579
2022-11-27T10:18:25.889Z,101579
2022-11-27T10:23:25.793Z,101573
2022-11-27T10:28:25.884Z,101568
2022-11-27T10:33:26.001Z,101568
2022-11-27T10:38:25.867Z,101561
2022-11-27T10:43:25.795Z,101561
2022-11-27T10:48:25.829Z,101557
2022-11-27T10:53:25.824Z,101555
2022-11-27T10:58:26.112Z,101555
2022-11-27T11:03:25.806Z,101545
2022-11-27T11:08:25.819Z,101536
2022-11-27T11:13:25.821Z,101541
2022-11-27T11:18:26.115Z,101526
2022-11-27T11:23:25.877Z,101518
2022-11-27T11:28:25.808Z,101515
2022-11-27T11:33:25.827Z,101515
2022-11-27T11:43:25.865Z,101498
2022-11-27T11:48:25.794Z,101496
2022-11-27T11:53:26.176Z,101496
2022-11-27T11:58:25.870Z,101477
2022-11-27T12:03:25.798Z,101475
2022-11-27T12:08:25.906Z,101475
2022-11-27T12:13:30.288Z,101471
2022-11-27T12:18:25.970Z,101471
2022-11-27T12:23:25.849Z,101463
2022-11-27T12:28:25.860Z,101465
2022-11-27T12:33:25.945Z,101461
2022-11-27T12:38:26.125Z,101461
2022-11-27T12:48:25.924Z,101460
2022-11-27T12:53:25.950Z,101450
2022-11-27T12:58:26.067Z,101451
2022-11-27T13:03:26.177Z,101451
2022-11-27T13:08:25.841Z,101450
2022-11-27T13:13:26.056Z,101450
2022-11-27T13:18:25.889Z,101442
2022-11-27T13:23:26.117Z,101437
2022-11-27T13:28:25.950Z,101438
2022-11-27T13:33:26.105Z,101438
2022-11-27T13:38:26.078Z,101438
2022-11-27T13:43:26.075Z,101435
2022-11-27T13:48:25.928Z,101435
2022-11-27T13:53:26.017Z,101436
2022-11-27T13:58:25.886Z,101437
2022-11-27T14:03:25.894Z,101437
2022-11-27T14:08:25.925Z,101438
2022-11-27T14:13:27.721Z,101438
2022-11-27T14:18:26.306Z,101440
2022-11-27T14:23:25.875Z,101446
2022-11-27T14:28:25.904Z,101441
2022-11-27T14:33:25.881Z,101441
2022-11-27T14:38:26.177Z,101447
2022-11-27T14:48:26.182Z,101455
2022-11-27T14:53:26.548Z,101455
2022-11-27T14:58:26.009Z,101453
2022-11-27T15:03:25.969Z,101457
2022-11-27T15:08:26.110Z,101460
2022-11-27T15:13:26.052Z,101460
2022-11-27T15:18:26.092Z,101460
2022-11-27T15:23:26.111Z,101457
2022-11-27T15:28:25.901Z,101458
2022-11-27T15:33:26.057Z,101452
2022-11-27T15:38:25.987Z,101453
2022-11-27T15:43:25.930Z,101458
2022-11-27T15:48:26.173Z,101457
2022-11-27T15:53:25.957Z,101455
2022-11-27T15:58:25.936Z,101455
2022-11-27T16:03:25.979Z,101455
2022-11-27T16:08:26.186Z,101457
2022-11-27T16:13:25.921Z,101457
2022-11-27T16:18:26.294Z,101451
2022-11-27T16:23:26.015Z,101451
2022-11-27T16:28:26.176Z,101444
2022-11-27T16:33:25.983Z,101442
2022-11-27T16:38:26.239Z,101432
2022-11-27T16:48:25.966Z,101436
2022-11-27T16:53:25.976Z,101429
2022-11-27T16:58:26.150Z,101429
2022-11-27T17:03:27.143Z,101422
2022-11-27T17:08:25.968Z,101417
2022-11-27T17:18:26.117Z,101415
2022-11-27T17:23:25.970Z,101412
2022-11-27T17:28:26.152Z,101412
2022-11-27T17:33:26.223Z,101411
2022-11-27T17:38:26.170Z,101410
2022-11-27T17:43:25.941Z,101397
2022-11-27T17:53:26.205Z,101392
2022-11-27T17:58:26.056Z,101392
2022-11-27T18:03:26.172Z,101383
2022-11-27T18:08:26.232Z,101374
2022-11-27T18:13:26.245Z,101374
2022-11-27T18:23:26.702Z,101375
2022-11-27T18:28:25.999Z,101374
2022-11-27T18:33:26.406Z,101371
2022-11-27T18:38:26.290Z,101371
2022-11-27T18:43:26.236Z,101359
2022-11-27T18:48:26.253Z,101354
2022-11-27T18:53:27.277Z,101351
2022-11-27T18:58:26.177Z,101351
2022-11-27T19:03:26.356Z,101355
2022-11-27T19:08:26.286Z,101350
2022-11-27T19:13:25.993Z,101345
2022-11-27T19:18:26.374Z,101355
2022-11-27T19:23:26.576Z,101358
2022-11-27T19:28:28.180Z,101358
2022-11-27T19:33:26.018Z,101360
2022-11-27T19:38:26.288Z,101358
2022-11-27T19:43:27.612Z,101376
2022-11-27T19:48:26.287Z,101367
2022-11-27T19:53:26.910Z,101359
2022-11-27T19:58:26.445Z,101358
2022-11-27T20:03:27.188Z,101354
2022-11-27T20:08:26.808Z,101350
2022-11-27T20:13:26.312Z,101346
2022-11-27T20:23:26.049Z,101340
2022-11-27T20:28:26.301Z,101340
2022-11-27T20:33:26.311Z,101346
2022-11-27T20:38:26.307Z,101338
2022-11-27T20:43:26.098Z,101328
2022-11-27T20:48:26.083Z,101328
2022-11-27T20:53:26.292Z,101326
2022-11-27T20:58:26.969Z,101323
2022-11-27T21:03:26.254Z,101314
2022-11-27T21:13:26.315Z,101322
2022-11-27T21:18:26.024Z,101322
2022-11-27T21:23:26.098Z,101313
2022-11-27T21:33:26.174Z,101315
2022-11-27T21:38:26.066Z,101309
2022-11-27T21:43:26.192Z,101311
2022-11-27T21:48:26.327Z,101300
2022-11-27T21:53:26.033Z,101304
2022-11-27T21:58:26.068Z,101304
2022-11-27T22:03:26.068Z,101303
2022-11-27T22:13:26.098Z,101294
2022-11-27T22:18:26.083Z,101298
2022-11-27T22:23:26.090Z,101301
2022-11-27T22:28:26.112Z,101301
2022-11-27T22:33:26.102Z,101290
2022-11-27T22:38:26.091Z,101286
2022-11-27T22:43:26.127Z,101289
2022-11-27T22:48:26.099Z,101286
2022-11-27T22:53:26.084Z,101285
2022-11-27T22:58:26.082Z,101290
2022-11-27T23:03:26.186Z,101288
2022-11-27T23:08:26.401Z,101277
2022-11-27T23:13:26.216Z,101276
2022-11-27T23:18:26.110Z,101272
2022-11-27T23:23:26.147Z,101265
2022-11-27T23:28:26.321Z,101265
2022-11-27T23:33:26.118Z,101252
2022-11-27T23:38:26.084Z,101222
2022-11-27T23:43:26.113Z,101212
2022-11-27T23:48:26.132Z,101207
2022-11-27T23:53:26.080Z,101207
2022-11-27T23:58:26.252Z,101208
